createdAt,value
2023-02-15T00:01:37.028Z,27.78
2023-02-15T00:04:05.364Z,28.13
2023-02-15T00:06:33.183Z,28.46
2023-02-15T00:09:00.528Z,27.78
2023-02-15T00:11:46.869Z,27.82
2023-02-15T00:14:15.836Z,28.12
2023-02-15T00:16:44.447Z,27.41
2023-02-15T00:19:12.418Z,27.99
2023-02-15T00:21:40.526Z,28.28
2023-02-15T00:24:08.754Z,27.76
2023-02-15T00:26:36.610Z,27.74
2023-02-15T00:29:04.069Z,27.52
2023-02-15T00:31:32.764Z,27.14
2023-02-15T00:34:04.060Z,27.33
2023-02-15T00:36:31.374Z,27.43
2023-02-15T00:38:58.669Z,26.99
2023-02-15T00:41:26.514Z,27.88
2023-02-15T00:43:53.845Z,28.06
2023-02-15T00:46:21.122Z,27.58
2023-02-15T00:48:48.478Z,27.91
2023-02-15T00:51:15.956Z,27.57
2023-02-15T00:53:43.222Z,27.65
2023-02-15T00:56:10.999Z,28.19
2023-02-15T00:58:38.319Z,28.23
2023-02-15T01:01:07.203Z,28.36
2023-02-15T01:03:34.824Z,28.17
2023-02-15T01:06:03.951Z,28.12
2023-02-15T01:08:31.514Z,27.84
2023-02-15T01:11:03.614Z,28.43
2023-02-15T01:13:31.256Z,28.41
2023-02-15T01:15:58.520Z,27.85
2023-02-15T01:18:27.709Z,27.20
2023-02-15T01:20:54.967Z,27.61
2023-02-15T01:23:22.230Z,27.72
2023-02-15T01:25:49.549Z,27.62
2023-02-15T01:28:16.742Z,27.96
2023-02-15T01:30:44.163Z,27.99
2023-02-15T01:33:18.813Z,28.58
2023-02-15T01:35:47.228Z,28.21
2023-02-15T01:38:15.254Z,28.14
2023-02-15T01:40:42.885Z,27.33
2023-02-15T01:43:11.166Z,27.29
2023-02-15T01:45:39.021Z,27.93
2023-02-15T01:48:09.561Z,27.96
2023-02-15T01:50:42.548Z,27.82
2023-02-15T01:53:14.460Z,28.02
2023-02-15T01:55:46.750Z,27.82
2023-02-15T01:58:16.816Z,27.85
2023-02-15T02:00:44.861Z,27.21
2023-02-15T02:03:12.915Z,27.56
2023-02-15T02:05:40.746Z,28.46
2023-02-15T02:08:10.658Z,27.40
2023-02-15T02:10:37.977Z,27.63
2023-02-15T02:13:07.222Z,28.24
2023-02-15T02:15:54.816Z,28.00
2023-02-15T02:18:34.287Z,27.55
2023-02-15T02:21:28.953Z,27.92
2023-02-15T02:24:10.022Z,27.52
2023-02-15T02:26:43.641Z,28.15
2023-02-15T02:29:21.935Z,28.04
2023-02-15T02:31:52.246Z,28.07
2023-02-15T02:34:40.149Z,27.75
2023-02-15T02:37:17.527Z,28.10
2023-02-15T02:39:57.102Z,27.62
2023-02-15T02:42:33.584Z,28.50
2023-02-15T02:45:13.433Z,28.24
2023-02-15T02:47:47.303Z,28.17
2023-02-15T02:50:19.485Z,27.70
2023-02-15T02:52:48.641Z,27.83
2023-02-15T02:55:16.509Z,28.12
2023-02-15T02:57:49.884Z,28.48
2023-02-15T03:00:18.587Z,28.30
2023-02-15T03:02:48.480Z,27.96
2023-02-15T03:05:20.859Z,28.30
2023-02-15T03:07:50.991Z,28.56
2023-02-15T03:10:20.019Z,28.27
2023-02-15T03:12:48.122Z,28.63
2023-02-15T03:15:19.692Z,28.43
2023-02-15T03:17:49.740Z,28.19
2023-02-15T03:20:20.206Z,28.31
2023-02-15T03:22:51.812Z,27.98
2023-02-15T03:25:24.726Z,28.30
2023-02-15T03:28:04.333Z,28.65
2023-02-15T03:30:32.472Z,28.30
2023-02-15T03:33:01.145Z,28.12
2023-02-15T03:35:34.636Z,28.42
2023-02-15T03:38:04.067Z,27.86
2023-02-15T03:41:08.261Z,27.24
2023-02-15T03:43:38.580Z,27.86
2023-02-15T03:46:20.411Z,28.06
2023-02-15T03:48:55.382Z,28.57
2023-02-15T03:51:37.692Z,28.46
2023-02-15T03:54:36.363Z,27.63
2023-02-15T03:57:22.748Z,27.61
2023-02-15T04:00:08.835Z,27.97
2023-02-15T04:02:41.178Z,27.36
2023-02-15T04:05:08.587Z,27.68
2023-02-15T04:07:35.785Z,27.79
2023-02-15T04:10:21.710Z,28.10
2023-02-15T04:12:49.109Z,27.97
2023-02-15T04:15:34.795Z,27.90
2023-02-15T04:18:03.923Z,28.46
2023-02-15T04:20:49.769Z,28.27
2023-02-15T04:23:35.670Z,28.34
2023-02-15T04:26:05.987Z,28.56
2023-02-15T04:28:35.381Z,28.21
2023-02-15T04:31:02.776Z,28.34
2023-02-15T04:33:30.060Z,28.55
2023-02-15T04:35:57.559Z,28.22
2023-02-15T04:38:24.782Z,28.54
2023-02-15T04:40:53.129Z,28.78
2023-02-15T04:43:20.678Z,27.83
2023-02-15T04:45:51.755Z,28.58
2023-02-15T04:48:19.152Z,28.46
2023-02-15T04:50:46.452Z,28.31
2023-02-15T04:53:13.874Z,28.33
2023-02-15T04:55:41.188Z,28.60
2023-02-15T04:58:08.436Z,28.33
2023-02-15T05:00:35.711Z,28.45
2023-02-15T05:03:03.194Z,28.76
2023-02-15T05:05:30.483Z,28.54
2023-02-15T05:07:57.799Z,28.76
2023-02-15T05:10:25.069Z,28.67
2023-02-15T05:12:52.458Z,28.62
2023-02-15T05:15:19.729Z,28.88
2023-02-15T05:17:47.055Z,28.55
2023-02-15T05:20:14.334Z,28.51
2023-02-15T05:22:41.955Z,28.70
2023-02-15T05:25:28.287Z,28.79
2023-02-15T05:28:14.059Z,28.44
2023-02-15T05:30:41.537Z,28.65
2023-02-15T05:33:08.831Z,29.07
2023-02-15T05:35:36.554Z,28.79
2023-02-15T05:38:03.969Z,28.68
2023-02-15T05:40:31.273Z,28.48
2023-02-15T05:42:58.505Z,29.04
2023-02-15T05:45:26.531Z,28.88
2023-02-15T05:47:53.873Z,29.27
2023-02-15T05:50:21.149Z,29.15
2023-02-15T05:52:50.372Z,28.96
2023-02-15T05:55:18.698Z,28.86
2023-02-15T05:57:45.880Z,28.87
2023-02-15T06:00:13.949Z,28.51
2023-02-15T06:02:41.792Z,28.49
2023-02-15T06:05:09.369Z,27.29
2023-02-15T06:07:36.857Z,28.00
2023-02-15T06:10:04.887Z,27.84
2023-02-15T06:12:32.155Z,28.34
2023-02-15T06:14:59.565Z,28.41
2023-02-15T06:17:26.816Z,27.51
2023-02-15T06:19:54.075Z,28.26
2023-02-15T06:22:21.537Z,28.47
2023-02-15T06:24:48.859Z,28.31
2023-02-15T06:27:16.149Z,28.57
2023-02-15T06:29:45.529Z,28.35
2023-02-15T06:32:13.006Z,28.49
2023-02-15T06:34:40.327Z,29.23
2023-02-15T06:37:09.218Z,28.61
2023-02-15T06:39:36.528Z,28.45
2023-02-15T06:42:04.028Z,28.41
2023-02-15T06:44:31.353Z,28.44
2023-02-15T06:46:58.586Z,28.99
2023-02-15T06:49:25.975Z,28.61
2023-02-15T06:51:53.403Z,28.52
2023-02-15T06:54:20.595Z,28.96
2023-02-15T06:56:47.867Z,28.86
2023-02-15T06:59:15.271Z,29.56
2023-02-15T07:01:42.637Z,28.88
2023-02-15T07:04:10.368Z,28.92
2023-02-15T07:07:02.321Z,28.76
2023-02-15T07:09:29.654Z,28.49
2023-02-15T07:12:16.101Z,28.23
2023-02-15T07:14:43.457Z,28.46
2023-02-15T07:17:27.444Z,28.28
2023-02-15T07:19:58.022Z,28.78
2023-02-15T07:23:15.307Z,29.04
2023-02-15T07:25:42.680Z,28.64
2023-02-15T07:28:10.505Z,28.55
2023-02-15T07:30:37.774Z,28.48
2023-02-15T07:33:23.595Z,28.60
2023-02-15T07:35:55.743Z,27.93
2023-02-15T07:38:23.049Z,29.77
2023-02-15T07:41:15.229Z,30.65
2023-02-15T07:43:43.765Z,30.54
2023-02-15T07:46:12.782Z,30.72
2023-02-15T07:48:40.806Z,30.76
2023-02-15T07:51:08.860Z,30.44
2023-02-15T07:53:36.418Z,30.39
2023-02-15T07:56:04.885Z,30.23
2023-02-15T07:58:50.575Z,30.36
2023-02-15T08:01:19.253Z,30.21
2023-02-15T08:03:46.515Z,30.51
2023-02-15T08:06:14.282Z,30.24
2023-02-15T08:08:42.388Z,30.29
2023-02-15T08:11:30.391Z,30.29
2023-02-15T08:14:03.714Z,30.15
2023-02-15T08:16:32.561Z,30.07
2023-02-15T08:19:01.172Z,30.50
2023-02-15T08:21:29.562Z,30.34
2023-02-15T08:23:57.240Z,30.32
2023-02-15T08:26:25.237Z,30.31
2023-02-15T08:28:52.889Z,30.44
2023-02-15T08:31:20.931Z,30.50
2023-02-15T08:33:48.993Z,30.40
2023-02-15T08:36:17.932Z,30.40
2023-02-15T08:38:45.513Z,30.48
2023-02-15T08:41:32.535Z,30.24
2023-02-15T08:44:01.249Z,30.22
2023-02-15T08:46:30.021Z,30.21
2023-02-15T08:48:58.586Z,30.36
2023-02-15T08:51:27.001Z,30.34
2023-02-15T08:53:56.096Z,30.27
2023-02-15T08:56:24.784Z,30.22
2023-02-15T08:58:52.197Z,30.27
2023-02-15T09:01:21.575Z,30.22
2023-02-15T09:03:50.354Z,30.22
2023-02-15T09:06:18.174Z,30.28
2023-02-15T09:08:45.585Z,30.28
2023-02-15T09:11:23.277Z,30.17
2023-02-15T09:13:52.875Z,29.98
2023-02-15T09:16:21.159Z,30.04
2023-02-15T09:18:49.197Z,30.16
2023-02-15T09:21:18.091Z,29.93
2023-02-15T09:23:46.097Z,30.07
2023-02-15T09:26:14.650Z,30.27
2023-02-15T09:28:41.950Z,30.07
2023-02-15T09:31:20.345Z,29.92
2023-02-15T09:33:48.605Z,30.09
2023-02-15T09:36:21.089Z,30.15
2023-02-15T09:38:49.359Z,30.06
2023-02-15T09:41:35.431Z,29.95
2023-02-15T09:44:21.209Z,30.24
2023-02-15T09:46:48.470Z,30.30
2023-02-15T09:49:28.868Z,29.83
2023-02-15T09:51:56.221Z,30.16
2023-02-15T09:54:32.242Z,29.93
2023-02-15T09:57:03.904Z,30.04
2023-02-15T09:59:39.781Z,30.00
2023-02-15T10:02:34.028Z,30.07
2023-02-15T10:05:24.544Z,30.01
2023-02-15T10:08:06.678Z,30.24
2023-02-15T10:11:20.258Z,30.03
2023-02-15T10:14:02.708Z,30.06
2023-02-15T10:16:48.709Z,30.16
2023-02-15T10:19:22.746Z,30.30
2023-02-15T10:22:04.824Z,30.37
2023-02-15T10:24:42.111Z,30.45
2023-02-15T10:27:17.144Z,30.40
2023-02-15T10:30:07.186Z,30.38
2023-02-15T10:32:40.557Z,30.26
2023-02-15T10:35:17.517Z,30.19
2023-02-15T10:38:03.679Z,30.36
2023-02-15T10:40:41.731Z,30.36
2023-02-15T10:43:36.437Z,30.31
2023-02-15T10:46:19.038Z,30.40
2023-02-15T10:48:52.396Z,30.54
2023-02-15T10:51:24.103Z,30.57
2023-02-15T10:54:20.873Z,30.47
2023-02-15T10:57:03.854Z,30.34
2023-02-15T10:59:37.280Z,30.25
2023-02-15T11:02:10.654Z,30.28
2023-02-15T11:04:45.759Z,30.55
2023-02-15T11:07:23.255Z,30.32
2023-02-15T11:09:54.399Z,30.31
2023-02-15T11:12:24.334Z,30.72
2023-02-15T11:15:04.692Z,30.41
2023-02-15T11:17:36.746Z,30.18
2023-02-15T11:20:04.073Z,30.30
2023-02-15T11:22:33.188Z,30.45
2023-02-15T11:25:02.071Z,30.61
2023-02-15T11:27:31.571Z,30.53
2023-02-15T11:30:03.871Z,30.45
2023-02-15T11:32:36.295Z,30.24
2023-02-15T11:35:03.567Z,30.61
2023-02-15T11:37:41.104Z,30.55
2023-02-15T11:40:23.356Z,30.47
2023-02-15T11:42:52.421Z,30.66
2023-02-15T11:45:19.773Z,30.48
2023-02-15T11:47:47.143Z,30.22
2023-02-15T11:50:17.683Z,30.51
2023-02-15T11:52:45.155Z,30.43
2023-02-15T11:55:19.114Z,30.44
2023-02-15T11:57:50.973Z,30.31
2023-02-15T12:00:27.404Z,30.29
2023-02-15T12:02:55.891Z,30.53
2023-02-15T12:05:24.455Z,30.63
2023-02-15T12:08:10.756Z,30.37
2023-02-15T12:10:41.293Z,30.35
2023-02-15T12:13:10.368Z,30.45
2023-02-15T12:15:38.695Z,30.09
2023-02-15T12:18:06.952Z,30.41
2023-02-15T12:20:35.519Z,30.69
2023-02-15T12:23:06.010Z,30.49
2023-02-15T12:25:38.144Z,30.44
2023-02-15T12:28:17.188Z,30.22
2023-02-15T12:30:44.583Z,30.56
2023-02-15T12:33:14.478Z,30.66
2023-02-15T12:35:41.934Z,30.68
2023-02-15T12:38:12.181Z,30.39
2023-02-15T12:40:41.142Z,30.45
2023-02-15T12:43:46.688Z,30.29
2023-02-15T12:46:24.710Z,30.23
2023-02-15T12:49:07.694Z,30.32
2023-02-15T12:51:45.458Z,30.10
2023-02-15T12:54:41.863Z,30.38
2023-02-15T12:57:15.111Z,30.18
2023-02-15T12:59:52.424Z,30.04
2023-02-15T13:02:30.962Z,30.16
2023-02-15T13:05:04.703Z,30.02
2023-02-15T13:07:33.127Z,30.58
2023-02-15T13:10:00.510Z,30.55
2023-02-15T13:12:31.636Z,30.47
2023-02-15T13:15:00.186Z,30.58
2023-02-15T13:17:32.872Z,30.41
2023-02-15T13:20:05.755Z,30.44
2023-02-15T13:22:44.378Z,30.64
2023-02-15T13:25:14.436Z,30.19
2023-02-15T13:27:43.919Z,30.17
2023-02-15T13:30:29.734Z,30.31
2023-02-15T13:32:59.129Z,29.70
2023-02-15T13:35:29.458Z,29.54
2023-02-15T13:37:59.866Z,29.60
2023-02-15T13:40:33.982Z,29.80
2023-02-15T13:43:06.685Z,30.27
2023-02-15T13:45:46.231Z,30.39
2023-02-15T13:48:17.688Z,30.19
2023-02-15T13:50:45.014Z,29.87
2023-02-15T13:53:31.802Z,30.24
2023-02-15T13:56:06.849Z,30.24
2023-02-15T13:58:49.376Z,30.03
2023-02-15T14:01:19.430Z,30.25
2023-02-15T14:03:52.551Z,30.28
2023-02-15T14:06:19.820Z,30.07
2023-02-15T14:08:53.120Z,29.95
2023-02-15T14:11:34.173Z,30.03
2023-02-15T14:14:01.406Z,30.10
2023-02-15T14:16:42.562Z,29.89
2023-02-15T14:19:09.914Z,30.00
2023-02-15T14:21:46.168Z,30.32
2023-02-15T14:24:25.898Z,30.34
2023-02-15T14:26:57.146Z,30.42
2023-02-15T14:29:36.726Z,30.15
2023-02-15T14:32:16.059Z,30.30
2023-02-15T14:34:46.841Z,30.23
2023-02-15T14:37:17.621Z,30.19
2023-02-15T14:40:08.660Z,30.40
2023-02-15T14:42:42.222Z,30.19
2023-02-15T14:45:12.623Z,29.90
2023-02-15T14:47:44.356Z,30.19
2023-02-15T14:50:30.919Z,30.29
2023-02-15T14:53:16.759Z,30.29
2023-02-15T14:55:44.125Z,30.34
2023-02-15T14:58:13.152Z,30.12
2023-02-15T15:00:41.206Z,29.86
2023-02-15T15:03:12.891Z,30.09
2023-02-15T15:05:49.122Z,29.79
2023-02-15T15:08:29.078Z,30.08
2023-02-15T15:10:56.659Z,29.78
2023-02-15T15:13:32.764Z,29.27
2023-02-15T15:16:18.893Z,29.26
2023-02-15T15:18:47.648Z,29.18
2023-02-15T15:21:33.576Z,29.06
2023-02-15T15:24:00.917Z,29.57
2023-02-15T15:26:34.424Z,29.33
2023-02-15T15:29:02.038Z,30.16
2023-02-15T15:31:42.038Z,30.08
2023-02-15T15:34:18.716Z,29.41
2023-02-15T15:37:01.082Z,29.70
2023-02-15T15:39:46.904Z,29.85
2023-02-15T15:42:21.254Z,29.70
2023-02-15T15:44:51.536Z,29.58
2023-02-15T15:47:18.719Z,29.35
2023-02-15T15:49:46.815Z,29.14
2023-02-15T15:52:19.252Z,28.40
2023-02-15T15:54:48.637Z,29.22
2023-02-15T15:57:18.984Z,29.20
2023-02-15T15:59:46.897Z,29.54
2023-02-15T16:02:17.064Z,29.35
2023-02-15T16:04:45.098Z,29.00
2023-02-15T16:07:18.617Z,29.67
2023-02-15T16:09:59.670Z,29.15
2023-02-15T16:12:28.947Z,29.09
2023-02-15T16:14:57.552Z,28.81
2023-02-15T16:17:26.254Z,29.28
2023-02-15T16:19:57.692Z,29.54
2023-02-15T16:22:29.027Z,29.91
2023-02-15T16:25:14.993Z,29.27
2023-02-15T16:27:43.258Z,29.11
2023-02-15T16:30:27.881Z,29.73
2023-02-15T16:32:56.667Z,29.66
2023-02-15T16:35:24.610Z,28.99
2023-02-15T16:37:53.943Z,29.38
2023-02-15T16:40:24.451Z,28.86
2023-02-15T16:42:52.943Z,29.60
2023-02-15T16:45:21.038Z,29.52
2023-02-15T16:47:51.280Z,29.69
2023-02-15T16:50:19.880Z,29.61
2023-02-15T16:52:47.516Z,29.47
2023-02-15T16:55:25.377Z,29.70
2023-02-15T16:57:56.174Z,30.11
2023-02-15T17:00:26.215Z,29.60
2023-02-15T17:02:56.892Z,29.44
2023-02-15T17:05:24.381Z,29.23
2023-02-15T17:07:53.227Z,29.15
2023-02-15T17:10:42.741Z,29.19
2023-02-15T17:13:14.101Z,29.54
2023-02-15T17:15:44.387Z,29.60
2023-02-15T17:18:20.672Z,29.54
2023-02-15T17:20:49.606Z,29.45
2023-02-15T17:23:33.914Z,30.08
2023-02-15T17:26:02.914Z,29.18
2023-02-15T17:28:31.834Z,29.82
2023-02-15T17:30:59.744Z,29.59
2023-02-15T17:33:33.190Z,29.65
2023-02-15T17:36:09.867Z,29.46
2023-02-15T17:38:40.946Z,29.48
2023-02-15T17:41:10.027Z,29.71
2023-02-15T17:43:37.672Z,29.56
2023-02-15T17:46:05.043Z,29.48
2023-02-15T17:48:34.363Z,29.40
2023-02-15T17:51:02.762Z,29.08
2023-02-15T17:53:30.807Z,28.82
2023-02-15T17:55:58.372Z,29.26
2023-02-15T17:58:25.687Z,29.39
2023-02-15T18:01:14.307Z,29.11
2023-02-15T18:04:05.755Z,29.12
2023-02-15T18:06:53.519Z,29.77
2023-02-15T18:09:40.253Z,29.28
2023-02-15T18:12:19.328Z,29.91
2023-02-15T18:14:46.684Z,29.21
2023-02-15T18:17:14.710Z,29.71
2023-02-15T18:19:43.114Z,29.90
2023-02-15T18:22:14.502Z,29.92
2023-02-15T18:24:41.752Z,30.06
2023-02-15T18:27:09.041Z,29.56
2023-02-15T18:29:36.226Z,30.16
2023-02-15T18:32:06.444Z,29.87
2023-02-15T18:34:38.579Z,29.75
2023-02-15T18:37:06.953Z,29.46
2023-02-15T18:39:42.603Z,29.48
2023-02-15T18:42:19.165Z,29.09
2023-02-15T18:44:46.493Z,29.13
2023-02-15T18:47:13.770Z,28.98
2023-02-15T18:49:41.102Z,29.52
2023-02-15T18:52:14.347Z,29.54
2023-02-15T18:54:41.959Z,29.12
2023-02-15T18:57:12.056Z,29.69
2023-02-15T18:59:39.518Z,29.42
2023-02-15T19:02:13.141Z,29.64
2023-02-15T19:04:40.536Z,29.42
2023-02-15T19:07:14.933Z,29.41
2023-02-15T19:09:42.561Z,29.17
2023-02-15T19:12:12.007Z,29.82
2023-02-15T19:14:41.273Z,29.50
2023-02-15T19:17:14.429Z,29.53
2023-02-15T19:19:41.794Z,29.62
2023-02-15T19:22:16.090Z,29.72
2023-02-15T19:24:44.839Z,29.31
2023-02-15T19:27:35.194Z,29.78
2023-02-15T19:30:04.220Z,29.66
2023-02-15T19:32:31.593Z,29.78
2023-02-15T19:34:59.129Z,29.77
2023-02-15T19:37:31.250Z,29.73
2023-02-15T19:39:58.675Z,29.64
2023-02-15T19:42:25.952Z,29.51
2023-02-15T19:44:54.591Z,29.55
2023-02-15T19:48:32.498Z,29.76
2023-02-15T19:51:25.564Z,29.68
2023-02-15T19:53:52.858Z,29.48
2023-02-15T19:56:24.158Z,29.81
2023-02-15T19:59:03.748Z,29.72
2023-02-15T20:01:30.967Z,29.33
2023-02-15T20:03:59.282Z,29.90
2023-02-15T20:06:26.656Z,29.63
2023-02-15T20:08:55.697Z,29.70
2023-02-15T20:11:24.038Z,29.25
2023-02-15T20:13:51.263Z,29.50
2023-02-15T20:16:18.678Z,29.26
2023-02-15T20:18:46.653Z,29.08
2023-02-15T20:21:15.933Z,28.42
2023-02-15T20:23:43.232Z,28.88
2023-02-15T20:26:14.836Z,28.43
2023-02-15T20:28:42.021Z,28.04
2023-02-15T20:31:14.558Z,28.39
2023-02-15T20:33:42.227Z,28.50
2023-02-15T20:36:14.283Z,29.58
2023-02-15T20:38:41.869Z,29.35
2023-02-15T20:41:35.201Z,28.46
2023-02-15T20:44:11.039Z,28.51
2023-02-15T20:46:38.344Z,29.23
2023-02-15T20:49:05.566Z,28.93
2023-02-15T20:51:32.922Z,29.10
2023-02-15T20:54:00.318Z,29.34
2023-02-15T20:56:27.667Z,28.95
2023-02-15T20:58:55.173Z,29.10
2023-02-15T21:01:22.611Z,28.93
2023-02-15T21:03:50.007Z,29.03
2023-02-15T21:06:17.781Z,29.54
2023-02-15T21:08:45.180Z,29.25
2023-02-15T21:11:23.130Z,29.11
2023-02-15T21:13:51.192Z,28.55
2023-02-15T21:16:18.545Z,29.40
2023-02-15T21:18:45.827Z,28.58
2023-02-15T21:21:18.865Z,28.01
2023-02-15T21:23:46.251Z,28.91
2023-02-15T21:26:19.645Z,28.78
2023-02-15T21:28:47.573Z,29.25
2023-02-15T21:31:24.882Z,29.00
2023-02-15T21:33:52.732Z,28.32
2023-02-15T21:36:22.372Z,28.68
2023-02-15T21:38:49.878Z,28.11
2023-02-15T21:41:36.572Z,29.16
2023-02-15T21:44:33.115Z,28.73
2023-02-15T21:47:19.040Z,28.90
2023-02-15T21:49:46.506Z,29.38
2023-02-15T21:52:14.691Z,29.50
2023-02-15T21:54:41.982Z,29.30
2023-02-15T21:57:16.274Z,28.68
2023-02-15T21:59:44.342Z,28.81
2023-02-15T22:02:31.860Z,29.05
2023-02-15T22:04:59.272Z,28.67
2023-02-15T22:07:26.486Z,28.75
2023-02-15T22:09:54.464Z,28.98
2023-02-15T22:12:22.068Z,29.26
2023-02-15T22:14:52.314Z,29.25
2023-02-15T22:17:21.252Z,29.13
2023-02-15T22:19:49.536Z,29.18
2023-02-15T22:22:17.021Z,29.42
2023-02-15T22:24:44.866Z,29.27
2023-02-15T22:27:22.592Z,29.29
2023-02-15T22:29:50.257Z,28.88
2023-02-15T22:32:24.802Z,28.88
2023-02-15T22:34:53.149Z,28.91
2023-02-15T22:37:20.678Z,28.73
2023-02-15T22:39:47.886Z,28.74
2023-02-15T22:42:25.302Z,28.89
2023-02-15T22:44:56.930Z,28.81
2023-02-15T22:47:25.530Z,28.90
2023-02-15T22:49:53.315Z,29.08
2023-02-15T22:52:21.103Z,29.01
2023-02-15T22:54:48.373Z,28.13
2023-02-15T22:57:20.274Z,28.72
2023-02-15T22:59:47.829Z,28.95
2023-02-15T23:02:15.527Z,28.94
2023-02-15T23:04:42.918Z,29.46
2023-02-15T23:07:14.390Z,28.92
2023-02-15T23:09:41.650Z,29.12
2023-02-15T23:12:29.044Z,29.08
2023-02-15T23:14:56.983Z,29.38
2023-02-15T23:17:24.174Z,29.31
2023-02-15T23:19:51.429Z,28.90
2023-02-15T23:22:18.839Z,28.90
2023-02-15T23:24:51.924Z,28.95
2023-02-15T23:27:37.793Z,28.85
2023-02-15T23:30:12.060Z,28.82
2023-02-15T23:32:39.617Z,29.26
2023-02-15T23:35:18.035Z,29.40
2023-02-15T23:37:45.452Z,29.41
2023-02-15T23:40:35.025Z,29.56
2023-02-15T23:43:03.051Z,29.40
2023-02-15T23:45:37.066Z,29.55
2023-02-15T23:48:29.618Z,29.19
2023-02-15T23:50:57.560Z,28.77
2023-02-15T23:53:24.830Z,29.12
2023-02-15T23:55:52.253Z,29.29
2023-02-15T23:58:20.899Z,29.23
